Time;durP1;ratioP1;P1;durP2;ratioP2;P2;SDS_P1;SDS_P2;PMS_P1;PMS_P2;Temp;Humidity;BMP_temperature;BMP_pressure;BME280_temperature;BME280_humidity;BME280_pressure;Samples;Min_cycle;Max_cycle;Signal;HPM_P1;HPM_P2
2022/01/27 00:01:38;;;;;;;21.42;14.73;;;;;;;;;;5077558;28;20617;-55
2022/01/27 00:04:12;;;;;;;23.60;14.75;;;;;;;;;;5076952;28;20239;-56
2022/01/27 00:06:41;;;;;;;22.95;13.65;;;;;;;;;;5076910;28;20188;-57
2022/01/27 00:09:15;;;;;;;26.20;15.82;;;;;;;;;;5076728;28;20208;-57
2022/01/27 00:11:46;;;;;;;22.52;14.35;;;;;;;;;;5077137;28;20242;-56
2022/01/27 00:14:15;;;;;;;24.02;14.75;;;;;;;;;;5077239;28;20207;-57
2022/01/27 00:16:52;;;;;;;23.55;13.50;;;;;;;;;;5076312;28;20255;-56
2022/01/27 00:19:19;;;;;;;22.08;13.60;;;;;;;;;;5076554;28;20239;-56
2022/01/27 00:21:47;;;;;;;24.35;16.48;;;;;;;;;;5076381;28;20669;-56
2022/01/27 00:24:15;;;;;;;23.63;15.70;;;;;;;;;;5076799;28;20205;-57
2022/01/27 00:26:42;;;;;;;20.95;14.25;;;;;;;;;;5077096;28;20618;-56
2022/01/27 00:29:11;;;;;;;20.73;13.98;;;;;;;;;;5076289;28;20205;-57
2022/01/27 00:31:38;;;;;;;19.23;14.02;;;;;;;;;;5076247;28;20209;-56
2022/01/27 00:34:06;;;;;;;26.48;15.95;;;;;;;;;;5076704;28;20214;-56
2022/01/27 00:36:33;;;;;;;24.95;15.25;;;;;;;;;;5076064;28;20197;-56
2022/01/27 00:39:01;;;;;;;22.42;14.35;;;;;;;;;;5075797;28;20225;-55
2022/01/27 00:41:28;;;;;;;20.88;13.55;;;;;;;;;;5076576;28;20566;-56
2022/01/27 00:43:55;;;;;;;24.80;14.52;;;;;;;;;;5076061;28;20205;-55
2022/01/27 00:46:24;;;;;;;24.85;12.80;;;;;;;;;;5076214;28;20223;-56
2022/01/27 00:48:52;;;;;;;21.20;14.30;;;;;;;;;;5076192;28;20581;-56
2022/01/27 00:51:22;;;;;;;21.00;15.02;;;;;;;;;;5075998;28;20575;-55
2022/01/27 00:53:54;;;;;;;25.55;15.75;;;;;;;;;;5075881;28;20185;-56
2022/01/27 00:56:31;;;;;;;20.73;13.95;;;;;;;;;;5076098;28;20350;-56
2022/01/27 00:59:15;;;;;;;20.73;14.52;;;;;;;;;;5075604;28;20268;-55
2022/01/27 01:01:50;;;;;;;20.65;14.07;;;;;;;;;;5076183;28;20272;-55
2022/01/27 01:04:24;;;;;;;22.27;14.90;;;;;;;;;;5076702;28;20189;-57
2022/01/27 01:06:52;;;;;;;25.27;16.00;;;;;;;;;;5075966;28;20656;-56
2022/01/27 01:14:57;;;;;;;24.70;16.85;;;;;;;;;;5075855;28;20181;-56
2022/01/27 01:31:15;;;;;;;25.55;16.98;;;;;;;;;;5075299;28;20261;-56
2022/01/27 01:33:46;;;;;;;24.50;14.88;;;;;;;;;;5075338;28;20193;-56
2022/01/27 01:36:15;;;;;;;26.70;17.20;;;;;;;;;;5074960;28;20699;-57
2022/01/27 01:38:44;;;;;;;24.98;16.77;;;;;;;;;;5074678;28;20278;-56
2022/01/27 01:41:11;;;;;;;24.17;16.50;;;;;;;;;;5075447;28;20232;-56
2022/01/27 01:43:39;;;;;;;23.10;15.45;;;;;;;;;;5075176;28;20699;-56
2022/01/27 01:46:06;;;;;;;23.52;15.70;;;;;;;;;;5074984;28;20673;-57
2022/01/27 01:48:33;;;;;;;21.73;14.00;;;;;;;;;;5074753;28;20716;-57
2022/01/27 01:51:04;;;;;;;26.35;17.10;;;;;;;;;;5075066;28;20615;-56
2022/01/27 01:53:31;;;;;;;24.40;15.07;;;;;;;;;;5074875;28;20196;-56
2022/01/27 01:55:59;;;;;;;25.23;15.75;;;;;;;;;;5074971;28;20208;-56
2022/01/27 01:58:26;;;;;;;27.48;17.48;;;;;;;;;;5075077;28;20254;-56
2022/01/27 02:00:53;;;;;;;26.55;17.83;;;;;;;;;;5076621;28;20214;-56
2022/01/27 02:03:21;;;;;;;27.48;16.45;;;;;;;;;;5076082;28;20201;-56
2022/01/27 02:05:53;;;;;;;30.77;17.35;;;;;;;;;;5076555;28;20704;-56
2022/01/27 02:08:37;;;;;;;21.95;15.75;;;;;;;;;;5078308;28;20316;-56
2022/01/27 02:19:22;;;;;;;25.23;17.20;;;;;;;;;;5073941;28;20235;-56
2022/01/27 02:21:52;;;;;;;30.02;19.15;;;;;;;;;;5073743;28;20205;-56
2022/01/27 02:24:20;;;;;;;27.40;20.05;;;;;;;;;;5073921;28;20201;-56
2022/01/27 02:26:49;;;;;;;28.10;18.85;;;;;;;;;;5074006;28;20208;-55
2022/01/27 02:29:17;;;;;;;27.45;18.25;;;;;;;;;;5073693;28;20566;-55
2022/01/27 02:31:44;;;;;;;29.52;18.98;;;;;;;;;;5073669;28;20204;-56
2022/01/27 02:34:12;;;;;;;28.50;18.27;;;;;;;;;;5073947;28;20209;-55
2022/01/27 02:36:39;;;;;;;29.48;20.52;;;;;;;;;;5073932;28;20201;-55
2022/01/27 02:39:09;;;;;;;30.88;20.10;;;;;;;;;;5073500;28;20217;-54
2022/01/27 02:41:38;;;;;;;31.50;19.08;;;;;;;;;;5073528;28;20197;-56
2022/01/27 02:44:05;;;;;;;30.95;19.15;;;;;;;;;;5073865;28;20210;-56
2022/01/27 02:46:36;;;;;;;30.40;19.58;;;;;;;;;;5073595;28;20696;-56
2022/01/27 02:49:04;;;;;;;36.90;21.90;;;;;;;;;;5076936;28;20185;-56
2022/01/27 02:51:32;;;;;;;37.78;23.55;;;;;;;;;;5078482;28;20205;-55
2022/01/27 02:53:59;;;;;;;39.00;22.98;;;;;;;;;;5078031;28;20204;-56
2022/01/27 02:56:28;;;;;;;43.08;23.10;;;;;;;;;;5078756;28;20205;-57
2022/01/27 02:58:55;;;;;;;35.35;22.17;;;;;;;;;;5078127;28;20575;-55
2022/01/27 03:01:22;;;;;;;38.28;22.08;;;;;;;;;;5078185;28;20216;-55
2022/01/27 03:03:50;;;;;;;34.53;23.52;;;;;;;;;;5078040;28;20208;-56
2022/01/27 03:06:17;;;;;;;41.53;24.33;;;;;;;;;;5078527;28;20209;-56
2022/01/27 03:08:44;;;;;;;40.42;23.67;;;;;;;;;;5077938;28;20334;-56
2022/01/27 03:11:13;;;;;;;38.45;22.10;;;;;;;;;;5077923;28;20201;-55
2022/01/27 03:13:42;;;;;;;43.50;24.52;;;;;;;;;;5078442;28;20570;-57
2022/01/27 03:16:10;;;;;;;38.40;23.95;;;;;;;;;;5076398;28;20204;-56
2022/01/27 03:18:38;;;;;;;36.50;20.08;;;;;;;;;;5076554;28;20221;-55
2022/01/27 03:21:05;;;;;;;39.65;23.65;;;;;;;;;;5074572;28;20205;-55
2022/01/27 03:23:35;;;;;;;34.40;22.05;;;;;;;;;;5073886;28;20248;-54
2022/01/27 03:26:02;;;;;;;41.30;24.30;;;;;;;;;;5073247;28;20684;-55
2022/01/27 03:28:30;;;;;;;36.75;22.85;;;;;;;;;;5072912;28;20723;-55
2022/01/27 03:30:59;;;;;;;32.63;18.20;;;;;;;;;;5072868;28;20683;-55
2022/01/27 03:33:26;;;;;;;50.03;23.02;;;;;;;;;;5073016;28;20314;-56
2022/01/27 03:35:54;;;;;;;38.90;21.60;;;;;;;;;;5072848;28;20208;-56
2022/01/27 03:38:21;;;;;;;41.88;22.27;;;;;;;;;;5072936;28;20232;-56
2022/01/27 03:40:48;;;;;;;41.20;21.58;;;;;;;;;;5073192;28;20311;-55
2022/01/27 03:43:16;;;;;;;36.65;20.40;;;;;;;;;;5073107;28;20200;-56
2022/01/27 03:45:43;;;;;;;35.33;19.65;;;;;;;;;;5074592;28;20210;-56
2022/01/27 03:48:12;;;;;;;37.72;19.58;;;;;;;;;;5073544;28;20221;-55
2022/01/27 03:50:39;;;;;;;36.00;21.27;;;;;;;;;;5073796;28;20201;-56
2022/01/27 03:53:06;;;;;;;37.05;21.70;;;;;;;;;;5074129;28;20591;-56
2022/01/27 03:55:34;;;;;;;36.28;21.33;;;;;;;;;;5074527;28;20209;-54
2022/01/27 03:58:01;;;;;;;34.17;20.90;;;;;;;;;;5073692;28;20225;-55
2022/01/27 04:00:28;;;;;;;31.42;17.88;;;;;;;;;;5073802;28;20197;-56
2022/01/27 04:03:02;;;;;;;31.55;18.65;;;;;;;;;;5074614;28;20204;-57
2022/01/27 04:05:36;;;;;;;36.65;20.83;;;;;;;;;;5074201;28;20189;-56
2022/01/27 04:09:14;;;;;;;37.22;21.13;;;;;;;;;;5094176;27;20545;-57
2022/01/27 04:11:42;;;;;;;34.15;19.67;;;;;;;;;;5094961;28;20551;-56
2022/01/27 04:14:10;;;;;;;35.67;22.33;;;;;;;;;;5093920;28;20547;-56
2022/01/27 04:16:38;;;;;;;33.78;20.30;;;;;;;;;;5092790;28;20205;-55
2022/01/27 04:19:05;;;;;;;30.73;20.70;;;;;;;;;;5091504;28;20208;-56
2022/01/27 04:21:33;;;;;;;36.08;22.27;;;;;;;;;;5092402;28;20203;-56
2022/01/27 04:24:00;;;;;;;38.20;24.15;;;;;;;;;;5091492;28;20554;-55
2022/01/27 04:26:35;;;;;;;35.75;22.40;;;;;;;;;;5090519;28;20208;-54
2022/01/27 04:29:03;;;;;;;34.95;22.05;;;;;;;;;;5090350;28;20289;-57
2022/01/27 04:31:30;;;;;;;27.02;18.25;;;;;;;;;;5090621;28;20223;-55
2022/01/27 04:33:59;;;;;;;38.15;22.23;;;;;;;;;;5090149;28;20203;-56
2022/01/27 04:36:29;;;;;;;36.42;22.20;;;;;;;;;;5090407;28;20246;-55
2022/01/27 04:39:06;;;;;;;41.33;23.40;;;;;;;;;;5090301;28;20217;-56
2022/01/27 04:41:40;;;;;;;35.33;21.80;;;;;;;;;;5089985;28;20188;-56
2022/01/27 04:44:16;;;;;;;35.10;22.73;;;;;;;;;;5089903;28;20188;-56
2022/01/27 04:46:49;;;;;;;37.80;22.23;;;;;;;;;;5090064;28;20279;-56
2022/01/27 04:49:16;;;;;;;36.55;21.60;;;;;;;;;;5089762;28;20270;-55
2022/01/27 04:51:44;;;;;;;36.70;23.13;;;;;;;;;;5089655;28;20200;-56
2022/01/27 04:54:16;;;;;;;34.72;23.75;;;;;;;;;;5089714;28;20204;-55
2022/01/27 04:56:45;;;;;;;37.47;22.23;;;;;;;;;;5089772;28;20184;-56
2022/01/27 04:59:17;;;;;;;36.17;21.35;;;;;;;;;;5089881;28;20205;-56
2022/01/27 05:01:49;;;;;;;32.33;19.98;;;;;;;;;;5089454;28;20700;-55
2022/01/27 05:04:19;;;;;;;35.00;21.70;;;;;;;;;;5090185;28;20195;-55
2022/01/27 05:06:48;;;;;;;33.83;23.35;;;;;;;;;;5091173;28;20211;-56
2022/01/27 05:09:15;;;;;;;41.17;23.33;;;;;;;;;;5089670;28;20214;-57
2022/01/27 05:11:49;;;;;;;33.08;19.92;;;;;;;;;;5089842;28;20204;-56
2022/01/27 05:14:20;;;;;;;31.98;22.73;;;;;;;;;;5089783;28;20272;-53
2022/01/27 05:16:48;;;;;;;34.53;23.20;;;;;;;;;;5089352;28;20189;-56
2022/01/27 05:19:15;;;;;;;35.00;22.85;;;;;;;;;;5083328;28;20251;-57
2022/01/27 05:21:42;;;;;;;36.90;22.30;;;;;;;;;;5076174;28;20604;-57
2022/01/27 05:24:10;;;;;;;33.67;22.15;;;;;;;;;;5076092;28;20201;-57
2022/01/27 05:26:38;;;;;;;35.22;20.75;;;;;;;;;;5076124;28;20209;-56
2022/01/27 05:29:06;;;;;;;34.40;20.80;;;;;;;;;;5075673;28;20216;-56
2022/01/27 05:31:35;;;;;;;39.85;24.00;;;;;;;;;;5075834;28;20200;-57
2022/01/27 05:34:02;;;;;;;32.30;20.35;;;;;;;;;;5075634;28;20650;-56
2022/01/27 05:36:29;;;;;;;38.65;22.40;;;;;;;;;;5075755;28;20201;-56
2022/01/27 05:38:56;;;;;;;35.28;22.48;;;;;;;;;;5075397;28;20727;-58
2022/01/27 05:41:24;;;;;;;37.88;22.52;;;;;;;;;;5075328;28;20575;-56
2022/01/27 05:43:51;;;;;;;39.38;21.92;;;;;;;;;;5075947;28;20201;-55
2022/01/27 05:46:18;;;;;;;32.53;22.65;;;;;;;;;;5076565;28;20201;-56
2022/01/27 05:48:47;;;;;;;34.95;19.95;;;;;;;;;;5075410;28;20221;-56
2022/01/27 05:51:15;;;;;;;29.30;20.13;;;;;;;;;;5075888;28;20227;-57
2022/01/27 05:53:43;;;;;;;35.03;23.73;;;;;;;;;;5075628;28;20313;-56
2022/01/27 05:56:10;;;;;;;34.33;20.40;;;;;;;;;;5075613;28;20201;-56
2022/01/27 05:58:37;;;;;;;38.17;24.35;;;;;;;;;;5075528;28;20632;-57
2022/01/27 06:01:05;;;;;;;35.85;22.33;;;;;;;;;;5075524;28;20201;-58
2022/01/27 06:03:32;;;;;;;33.35;20.20;;;;;;;;;;5075340;28;20208;-57
2022/01/27 06:06:01;;;;;;;35.47;21.83;;;;;;;;;;5075042;28;20201;-57
2022/01/27 06:08:29;;;;;;;37.50;22.35;;;;;;;;;;5074896;28;20743;-57
2022/01/27 06:10:57;;;;;;;37.13;21.95;;;;;;;;;;5075393;28;20672;-57
2022/01/27 06:13:24;;;;;;;36.60;22.38;;;;;;;;;;5075414;28;20204;-54
2022/01/27 06:15:51;;;;;;;30.70;20.55;;;;;;;;;;5075328;28;20208;-56
2022/01/27 06:18:19;;;;;;;39.47;23.50;;;;;;;;;;5075430;28;20221;-56
2022/01/27 06:20:46;;;;;;;34.35;21.90;;;;;;;;;;5075143;28;20209;-56
2022/01/27 06:23:15;;;;;;;38.55;23.10;;;;;;;;;;5075545;28;20296;-57
2022/01/27 06:25:43;;;;;;;31.17;21.67;;;;;;;;;;5074938;28;20201;-56
2022/01/27 06:28:10;;;;;;;32.50;21.27;;;;;;;;;;5075104;28;20225;-56
2022/01/27 06:30:38;;;;;;;37.47;21.15;;;;;;;;;;5074017;28;20296;-55
2022/01/27 06:33:06;;;;;;;30.33;21.25;;;;;;;;;;5074864;28;20288;-56
2022/01/27 06:35:34;;;;;;;32.70;20.60;;;;;;;;;;5074986;28;20225;-57
2022/01/27 06:38:01;;;;;;;36.42;23.30;;;;;;;;;;5074933;28;20247;-56
2022/01/27 06:40:30;;;;;;;28.67;17.23;;;;;;;;;;5074535;28;20694;-56
2022/01/27 06:42:57;;;;;;;36.05;21.30;;;;;;;;;;5074575;28;20643;-56
2022/01/27 06:45:25;;;;;;;32.33;20.75;;;;;;;;;;5074737;28;20205;-54
2022/01/27 06:47:52;;;;;;;34.58;22.17;;;;;;;;;;5074610;28;20637;-56
2022/01/27 06:50:20;;;;;;;34.28;21.92;;;;;;;;;;5074144;28;20310;-56
2022/01/27 06:52:47;;;;;;;30.95;19.15;;;;;;;;;;5075682;28;20560;-56
2022/01/27 06:55:17;;;;;;;34.13;22.52;;;;;;;;;;5075326;28;20669;-55
2022/01/27 06:57:46;;;;;;;31.83;20.13;;;;;;;;;;5075829;28;20270;-56
2022/01/27 07:00:14;;;;;;;30.67;21.30;;;;;;;;;;5076329;28;20197;-56
2022/01/27 07:02:42;;;;;;;36.00;21.00;;;;;;;;;;5077471;28;20629;-55
2022/01/27 07:05:10;;;;;;;35.17;21.08;;;;;;;;;;5079046;28;20287;-56
2022/01/27 07:07:37;;;;;;;39.33;21.85;;;;;;;;;;5078694;28;20268;-56
2022/01/27 07:10:05;;;;;;;34.47;22.05;;;;;;;;;;5078255;28;20248;-56
2022/01/27 07:12:32;;;;;;;33.40;22.35;;;;;;;;;;5077153;28;20569;-55
2022/01/27 07:15:01;;;;;;;36.92;22.20;;;;;;;;;;5076494;28;20690;-56
2022/01/27 07:17:28;;;;;;;34.83;20.60;;;;;;;;;;5075162;28;20304;-55
2022/01/27 07:19:56;;;;;;;31.85;20.70;;;;;;;;;;5074673;28;20575;-56
2022/01/27 07:22:23;;;;;;;30.25;21.40;;;;;;;;;;5074672;28;20292;-55
2022/01/27 07:24:50;;;;;;;36.08;22.10;;;;;;;;;;5074131;28;20299;-55
2022/01/27 07:27:19;;;;;;;37.80;21.70;;;;;;;;;;5075603;28;20270;-56
2022/01/27 07:29:47;;;;;;;34.60;21.83;;;;;;;;;;5075106;28;20225;-56
2022/01/27 07:32:15;;;;;;;37.15;21.80;;;;;;;;;;5075692;28;20216;-55
2022/01/27 07:34:43;;;;;;;41.22;22.27;;;;;;;;;;5075109;28;20197;-57
2022/01/27 07:37:10;;;;;;;44.42;23.70;;;;;;;;;;5075153;28;20236;-56
2022/01/27 07:39:37;;;;;;;34.03;22.15;;;;;;;;;;5074453;28;20197;-57
2022/01/27 07:42:05;;;;;;;37.08;21.58;;;;;;;;;;5073657;28;20204;-57
2022/01/27 07:44:32;;;;;;;35.90;22.92;;;;;;;;;;5073793;28;20216;-56
2022/01/27 07:46:59;;;;;;;33.35;20.98;;;;;;;;;;5073729;28;20589;-57
2022/01/27 07:49:29;;;;;;;36.13;22.25;;;;;;;;;;5074282;28;20224;-54
2022/01/27 07:51:56;;;;;;;40.70;22.15;;;;;;;;;;5074097;28;20205;-55
2022/01/27 07:54:23;;;;;;;31.85;22.00;;;;;;;;;;5076980;28;20201;-55
2022/01/27 07:56:51;;;;;;;33.03;20.50;;;;;;;;;;5075311;28;20200;-56
2022/01/27 07:59:18;;;;;;;31.65;20.63;;;;;;;;;;5075413;28;20201;-57
2022/01/27 08:01:46;;;;;;;29.20;19.95;;;;;;;;;;5075867;28;20205;-55
2022/01/27 08:04:13;;;;;;;40.85;21.90;;;;;;;;;;5075747;28;20273;-56
2022/01/27 08:06:42;;;;;;;30.13;20.05;;;;;;;;;;5074159;28;20208;-56
2022/01/27 08:09:09;;;;;;;40.72;18.05;;;;;;;;;;5073538;28;20229;-57
2022/01/27 08:11:36;;;;;;;33.45;18.65;;;;;;;;;;5073615;28;20205;-55
2022/01/27 08:14:04;;;;;;;29.63;18.88;;;;;;;;;;5073810;28;20661;-56
2022/01/27 08:16:31;;;;;;;28.90;18.63;;;;;;;;;;5073359;28;20677;-56
2022/01/27 08:18:58;;;;;;;30.38;19.15;;;;;;;;;;5073720;28;20228;-57
2022/01/27 08:21:25;;;;;;;32.70;19.10;;;;;;;;;;5073176;28;20197;-57
2022/01/27 08:23:56;;;;;;;27.95;18.77;;;;;;;;;;5073004;28;20688;-58
2022/01/27 08:26:36;;;;;;;29.52;18.35;;;;;;;;;;5073245;28;20185;-56
2022/01/27 08:29:11;;;;;;;28.02;19.50;;;;;;;;;;5074054;28;20225;-57
2022/01/27 08:31:57;;;;;;;27.25;17.70;;;;;;;;;;5073858;28;20559;-56
2022/01/27 08:34:30;;;;;;;32.83;19.15;;;;;;;;;;5073569;28;20254;-56
2022/01/27 08:36:58;;;;;;;30.23;18.40;;;;;;;;;;5074964;28;20190;-56
2022/01/27 08:39:26;;;;;;;27.20;15.88;;;;;;;;;;5077178;28;20197;-56
2022/01/27 08:41:54;;;;;;;24.48;16.13;;;;;;;;;;5082001;28;20212;-56
2022/01/27 08:44:21;;;;;;;26.45;16.30;;;;;;;;;;5082056;28;20201;-56
2022/01/27 08:46:49;;;;;;;22.48;15.25;;;;;;;;;;5082233;28;20208;-56
2022/01/27 08:49:17;;;;;;;22.77;16.35;;;;;;;;;;5079406;28;20221;-56
2022/01/27 08:51:44;;;;;;;24.13;16.00;;;;;;;;;;5072643;28;20275;-56
2022/01/27 08:54:12;;;;;;;21.30;14.18;;;;;;;;;;5073589;28;20269;-57
2022/01/27 08:56:40;;;;;;;25.38;15.25;;;;;;;;;;5077080;28;20209;-57
2022/01/27 08:59:08;;;;;;;22.17;13.98;;;;;;;;;;5076324;28;20679;-56
2022/01/27 09:01:35;;;;;;;21.52;14.93;;;;;;;;;;5076871;28;20228;-56
2022/01/27 09:04:02;;;;;;;20.80;15.38;;;;;;;;;;5076231;28;20216;-56
2022/01/27 09:06:30;;;;;;;19.08;15.13;;;;;;;;;;5076755;28;20208;-55
2022/01/27 09:08:59;;;;;;;20.60;13.73;;;;;;;;;;5076924;28;20229;-56
2022/01/27 09:11:28;;;;;;;19.48;13.43;;;;;;;;;;5077049;28;20201;-57
2022/01/27 09:13:57;;;;;;;19.70;13.68;;;;;;;;;;5077407;28;20600;-56
2022/01/27 09:16:27;;;;;;;19.33;15.02;;;;;;;;;;5077155;28;20201;-56
2022/01/27 09:18:55;;;;;;;14.63;11.63;;;;;;;;;;5078646;28;20263;-56
2022/01/27 09:21:26;;;;;;;18.45;13.07;;;;;;;;;;5076622;28;20240;-56
2022/01/27 09:23:54;;;;;;;22.10;13.32;;;;;;;;;;5078388;28;20287;-57
2022/01/27 09:26:41;;;;;;;17.73;12.48;;;;;;;;;;5079636;28;20645;-56
2022/01/27 09:29:10;;;;;;;15.70;13.00;;;;;;;;;;5077669;28;20299;-56
2022/01/27 09:31:38;;;;;;;14.45;11.02;;;;;;;;;;5078118;28;20205;-57
2022/01/27 09:34:05;;;;;;;17.63;12.32;;;;;;;;;;5076693;28;20201;-57
2022/01/27 09:36:33;;;;;;;15.52;11.40;;;;;;;;;;5077921;28;20205;-53
2022/01/27 09:39:00;;;;;;;16.55;12.57;;;;;;;;;;5076712;28;20218;-56
2022/01/27 09:41:28;;;;;;;16.23;11.27;;;;;;;;;;5077156;28;20205;-57
2022/01/27 09:43:55;;;;;;;12.73;10.43;;;;;;;;;;5075993;28;20196;-57
2022/01/27 09:46:26;;;;;;;12.00;9.60;;;;;;;;;;5075450;28;20228;-57
2022/01/27 09:48:54;;;;;;;14.18;10.82;;;;;;;;;;5075427;28;20225;-56
2022/01/27 09:51:37;;;;;;;16.30;12.18;;;;;;;;;;5075393;28;20205;-56
2022/01/27 09:54:05;;;;;;;12.30;9.88;;;;;;;;;;5075364;28;20239;-57
2022/01/27 09:56:34;;;;;;;13.73;10.35;;;;;;;;;;5075214;28;20197;-56
2022/01/27 09:59:01;;;;;;;13.38;10.15;;;;;;;;;;5075566;28;20225;-57
2022/01/27 10:01:30;;;;;;;12.70;9.82;;;;;;;;;;5076334;28;20283;-56
2022/01/27 10:03:58;;;;;;;14.52;10.13;;;;;;;;;;5077850;28;20216;-56
2022/01/27 10:06:29;;;;;;;11.30;8.98;;;;;;;;;;5078277;28;20208;-56
2022/01/27 10:09:12;;;;;;;12.27;9.38;;;;;;;;;;5076084;28;20233;-57
2022/01/27 10:11:40;;;;;;;13.07;9.90;;;;;;;;;;5076086;28;20208;-57
2022/01/27 10:14:20;;;;;;;12.82;9.18;;;;;;;;;;5076060;28;20270;-57
2022/01/27 10:16:50;;;;;;;13.45;9.75;;;;;;;;;;5074963;28;20201;-57
2022/01/27 10:19:17;;;;;;;13.15;9.60;;;;;;;;;;5075009;28;20197;-57
2022/01/27 10:21:46;;;;;;;13.15;9.93;;;;;;;;;;5074752;28;20687;-57
2022/01/27 10:24:19;;;;;;;12.50;10.18;;;;;;;;;;5099685;22;20300;-56
2022/01/27 10:26:53;;;;;;;12.70;10.20;;;;;;;;;;5035727;28;20273;-56
2022/01/27 10:29:34;;;;;;;9.98;8.50;;;;;;;;;;5034270;28;20206;-58
2022/01/27 10:32:08;;;;;;;10.82;8.68;;;;;;;;;;5034843;28;20187;-57
2022/01/27 10:34:50;;;;;;;11.55;8.75;;;;;;;;;;5034391;28;20230;-56
2022/01/27 10:37:17;;;;;;;11.40;8.93;;;;;;;;;;5034227;28;20201;-56
2022/01/27 10:39:47;;;;;;;9.55;8.38;;;;;;;;;;5034141;28;20677;-57
2022/01/27 10:42:14;;;;;;;10.35;8.45;;;;;;;;;;5034444;28;20209;-58
2022/01/27 10:44:45;;;;;;;11.10;8.48;;;;;;;;;;5034082;28;20218;-56
2022/01/27 10:47:18;;;;;;;10.95;8.20;;;;;;;;;;5033911;28;20190;-56
2022/01/27 10:49:49;;;;;;;11.48;7.43;;;;;;;;;;5034127;28;20210;-57
2022/01/27 10:52:20;;;;;;;11.55;8.50;;;;;;;;;;5033998;28;20187;-57
2022/01/27 10:54:56;;;;;;;11.77;8.30;;;;;;;;;;5034754;28;20226;-57
2022/01/27 10:57:24;;;;;;;10.00;8.65;;;;;;;;;;5034068;28;20624;-56
2022/01/27 11:00:05;;;;;;;9.00;8.00;;;;;;;;;;5034110;28;20198;-56
2022/01/27 11:02:33;;;;;;;10.98;8.25;;;;;;;;;;5033827;28;20548;-56
2022/01/27 11:05:01;;;;;;;10.38;9.00;;;;;;;;;;5033671;28;20237;-56
2022/01/27 11:07:28;;;;;;;9.43;8.23;;;;;;;;;;5033666;28;20213;-58
2022/01/27 11:09:58;;;;;;;11.75;9.10;;;;;;;;;;5033696;28;20226;-56
2022/01/27 11:12:25;;;;;;;10.63;8.52;;;;;;;;;;5033739;28;20619;-56
2022/01/27 11:14:54;;;;;;;10.30;8.15;;;;;;;;;;5033244;28;20612;-57
2022/01/27 11:17:24;;;;;;;9.35;8.00;;;;;;;;;;5032700;28;20670;-57
2022/01/27 11:20:17;;;;;;;10.15;8.80;;;;;;;;;;5033393;28;20202;-57
2022/01/27 11:22:59;;;;;;;10.38;8.80;;;;;;;;;;5033486;28;20197;-58
2022/01/27 11:28:12;;;;;;;11.88;8.63;;;;;;;;;;5033360;28;20645;-57
2022/01/27 11:30:45;;;;;;;11.23;8.55;;;;;;;;;;5033109;28;20689;-57
2022/01/27 11:33:14;;;;;;;10.05;8.48;;;;;;;;;;5033606;28;20193;-57
2022/01/27 11:35:43;;;;;;;10.80;8.50;;;;;;;;;;5033498;28;20242;-55
2022/01/27 11:38:11;;;;;;;10.15;7.95;;;;;;;;;;5033259;28;20722;-56
2022/01/27 11:40:39;;;;;;;10.85;8.30;;;;;;;;;;5033167;28;20209;-57
2022/01/27 11:43:08;;;;;;;11.07;9.68;;;;;;;;;;5033462;28;20206;-57
2022/01/27 11:45:40;;;;;;;9.85;8.18;;;;;;;;;;5033320;28;20718;-56
2022/01/27 11:48:10;;;;;;;9.02;7.70;;;;;;;;;;5034506;28;20321;-57
2022/01/27 11:50:51;;;;;;;9.77;7.45;;;;;;;;;;5033466;28;20296;-58
2022/01/27 11:53:35;;;;;;;11.07;8.88;;;;;;;;;;5033194;28;20214;-57
2022/01/27 11:56:02;;;;;;;9.02;7.90;;;;;;;;;;5032822;28;20233;-57
2022/01/27 11:58:30;;;;;;;11.02;6.82;;;;;;;;;;5033349;28;20301;-57
2022/01/27 12:01:18;;;;;;;9.30;7.53;;;;;;;;;;5032789;28;20202;-56
2022/01/27 12:04:00;;;;;;;7.18;6.05;;;;;;;;;;5033024;28;20206;-55
2022/01/27 12:06:29;;;;;;;10.07;8.00;;;;;;;;;;5030827;28;20674;-57
2022/01/27 12:09:25;;;;;;;11.30;7.97;;;;;;;;;;5032600;28;20573;-57
2022/01/27 12:11:55;;;;;;;12.05;7.18;;;;;;;;;;5032730;28;20639;-56
2022/01/27 12:14:25;;;;;;;9.55;7.53;;;;;;;;;;5032832;28;20234;-56
2022/01/27 12:17:12;;;;;;;10.80;8.77;;;;;;;;;;5032646;28;20293;-57
2022/01/27 12:19:49;;;;;;;7.43;6.43;;;;;;;;;;5033073;28;20198;-57
2022/01/27 12:22:18;;;;;;;11.38;8.27;;;;;;;;;;5032483;28;20197;-57
2022/01/27 12:24:51;;;;;;;9.13;6.90;;;;;;;;;;5032418;28;20284;-57
2022/01/27 12:27:19;;;;;;;9.65;7.43;;;;;;;;;;5032829;28;20229;-56
2022/01/27 12:29:48;;;;;;;10.85;7.00;;;;;;;;;;5034351;28;20717;-57
2022/01/27 12:32:20;;;;;;;10.65;7.53;;;;;;;;;;5036821;28;20207;-56
2022/01/27 12:34:48;;;;;;;11.77;8.60;;;;;;;;;;5037347;28;20261;-56
2022/01/27 12:37:18;;;;;;;10.60;8.63;;;;;;;;;;5036554;28;20206;-56
2022/01/27 12:39:55;;;;;;;7.90;6.45;;;;;;;;;;5036542;28;20206;-56
2022/01/27 12:42:26;;;;;;;11.40;7.20;;;;;;;;;;5037132;28;20477;-57
2022/01/27 12:44:57;;;;;;;12.80;8.35;;;;;;;;;;5036190;28;20248;-56
2022/01/27 12:47:25;;;;;;;10.55;7.75;;;;;;;;;;5036437;28;20202;-56
2022/01/27 12:50:02;;;;;;;10.52;9.43;;;;;;;;;;5036111;28;20233;-56
2022/01/27 12:52:32;;;;;;;8.48;6.25;;;;;;;;;;5035936;28;20190;-57
2022/01/27 12:55:00;;;;;;;11.32;7.88;;;;;;;;;;5036312;28;20222;-57
2022/01/27 12:57:28;;;;;;;10.68;8.20;;;;;;;;;;5036115;28;20617;-57
2022/01/27 12:59:57;;;;;;;12.32;9.00;;;4.20;99.90;;;;;;5035660;28;20605;-57
2022/01/27 13:02:29;;;;;;;7.60;6.78;;;6.90;99.90;;;;;;5036233;28;20198;-56
2022/01/27 13:04:58;;;;;;;11.40;8.07;;;6.90;99.90;;;;;;5036135;28;20222;-57
2022/01/27 13:07:27;;;;;;;12.07;7.82;;;6.90;99.90;;;;;;5036082;28;20207;-56
2022/01/27 13:09:55;;;;;;;10.07;8.45;;;7.00;99.90;;;;;;5036156;28;20230;-57
2022/01/27 13:12:29;;;;;;;11.95;8.93;;;7.10;99.90;;;;;;5036266;28;20203;-57
2022/01/27 13:15:06;;;;;;;8.93;6.45;;;7.20;99.90;;;;;;5036046;28;20236;-55
2022/01/27 13:17:39;;;;;;;11.68;8.23;;;7.20;99.90;;;;;;5036936;28;20212;-57
2022/01/27 13:20:13;;;;;;;9.35;7.97;;;7.20;99.90;;;;;;5036847;28;20230;-57
2022/01/27 13:22:49;;;;;;;10.43;8.27;;;7.20;99.90;;;;;;5036527;28;20186;-57
2022/01/27 13:25:18;;;;;;;12.93;9.77;;;7.20;99.90;;;;;;5035446;28;20816;-56
2022/01/27 13:28:03;;;;;;;9.77;8.55;;;7.10;99.90;;;;;;5036409;28;20256;-56
2022/01/27 13:30:30;;;;;;;10.60;7.85;;;7.10;99.90;;;;;;5035390;28;20206;-57
2022/01/27 13:32:57;;;;;;;11.15;7.53;;;7.20;99.90;;;;;;5035430;28;20605;-56
2022/01/27 13:35:24;;;;;;;12.00;7.85;;;7.20;99.90;;;;;;5035396;28;20597;-56
2022/01/27 13:37:57;;;;;;;11.75;9.02;;;7.20;99.90;;;;;;5035635;28;20229;-58
2022/01/27 13:43:40;;;;;;;15.18;9.80;;;7.20;99.90;;;;;;5013632;28;20206;-58
2022/01/27 13:46:08;;;;;;;14.15;9.93;;;7.20;99.90;;;;;;5013565;28;20651;-56
2022/01/27 13:48:43;;;;;;;14.75;10.02;;;7.20;99.90;;;;;;5024927;28;20221;-56
2022/01/27 13:51:19;;;;;;;17.55;9.60;;;7.20;99.90;;;;;;5035289;28;20217;-57
2022/01/27 13:54:02;;;;;;;11.88;9.00;;;7.20;99.90;;;;;;5035227;28;20237;-58
2022/01/27 13:56:43;;;;;;;14.80;9.23;;;7.20;99.90;;;;;;5033542;28;20558;-58
2022/01/27 13:59:15;;;;;;;18.15;10.30;;;7.20;99.90;;;;;;5035328;28;20287;-57
2022/01/27 14:01:43;;;;;;;12.30;8.05;;;7.20;99.90;;;;;;5035467;28;20183;-57
2022/01/27 14:04:10;;;;;;;10.88;8.57;;;7.20;99.90;;;;;;5034665;28;20230;-57
2022/01/27 14:06:58;;;;;;;8.35;7.47;;;7.20;99.90;;;;;;5035287;28;20206;-58
2022/01/27 14:09:29;;;;;;;10.00;7.50;;;7.10;99.90;;;;;;5030174;28;20210;-57
2022/01/27 14:12:00;;;;;;;9.88;6.22;;;7.10;99.90;;;;;;5035042;28;20233;-58
2022/01/27 14:14:49;;;;;;;7.65;6.30;;;7.10;99.90;;;;;;5034100;28;20223;-57
2022/01/27 14:17:21;;;;;;;6.90;6.20;;;7.00;99.90;;;;;;5034682;28;20618;-57
2022/01/27 14:19:49;;;;;;;9.25;6.65;;;7.00;99.90;;;;;;5034762;28;20203;-57
2022/01/27 14:22:19;;;;;;;7.13;6.43;;;7.00;99.90;;;;;;5034415;28;20201;-56
2022/01/27 14:24:58;;;;;;;11.15;6.47;;;7.00;99.90;;;;;;5035200;28;20238;-57
2022/01/27 14:27:33;;;;;;;6.35;5.18;;;7.10;99.90;;;;;;5035670;28;20657;-56
2022/01/27 14:30:01;;;;;;;6.05;5.45;;;7.10;99.90;;;;;;5034854;28;20514;-56
2022/01/27 14:32:31;;;;;;;7.32;6.03;;;7.10;99.90;;;;;;5034785;28;20206;-56
2022/01/27 14:34:58;;;;;;;6.75;5.60;;;7.10;99.90;;;;;;5034577;28;20317;-57
2022/01/27 14:37:25;;;;;;;7.55;5.90;;;7.10;99.90;;;;;;5034608;28;20214;-57
2022/01/27 14:39:52;;;;;;;7.28;5.90;;;7.10;99.90;;;;;;5034523;28;20202;-57
2022/01/27 14:42:23;;;;;;;10.00;6.72;;;7.10;99.90;;;;;;5034415;28;20194;-57
2022/01/27 14:44:51;;;;;;;9.35;6.45;;;7.00;99.90;;;;;;5034429;28;20321;-56
2022/01/27 14:47:20;;;;;;;8.85;5.68;;;7.00;99.90;;;;;;5034381;28;20556;-57
2022/01/27 14:49:51;;;;;;;14.05;7.72;;;7.00;99.90;;;;;;5034318;28;20228;-57
2022/01/27 14:52:22;;;;;;;9.77;7.20;;;6.90;99.90;;;;;;5033528;28;20207;-57
2022/01/27 14:54:50;;;;;;;12.65;7.85;;;7.00;99.90;;;;;;5034170;28;20329;-57
2022/01/27 14:57:17;;;;;;;9.75;6.88;;;6.90;99.90;;;;;;5034281;28;20607;-58